Latest Weather Observations for Hay Airport

IDN60801

Issued at 5:12 pm EST Saturday 22 September 2018 (issued every 10 minutes, with the page automatically refreshed every 10 minutes)

About weather observations | Map of weather stations | Latest weather observations for NSW | Other Formats
Station Details ID: 075019 Name: HAY AIRPORT AWS Lat: -34.54 Lon: 144.83 Height: 92.0 m
Data from the previous 72 hours. | See also: Recent months at Hay Airport
Date/Time
EST
Temp
°C
App
Temp
°C
Dew
Point
°C
Rel
Hum
%
Delta-T
°C
Wind Press
QNH
hPa
Press
MSL
hPa
Rain since
9am
mm
Dir  Spd
km/h
Gust
km/h
Spd
kts
Gust
kts
22/05:00pm 25.4 20.0 2.2 22 11.1 WSW 20 37 11 20 1023.7 1023.6 0.0
22/04:30pm 25.8 19.7 2.5 22 11.3 WSW 24 32 13 17 1023.7 1023.6 0.0
22/04:00pm 26.3 21.4 2.3 21 11.6 SW 17 30 9 16 1023.7 1023.6 0.0
22/03:30pm 26.5 21.2 3.1 22 11.6 SW 20 32 11 17 1023.9 1023.8 0.0
22/03:00pm 25.7 20.3 2.4 22 11.3 WSW 20 30 11 16 1024.1 1024.0 0.0
22/02:30pm 25.4 18.9 2.8 23 11.0 W 26 33 14 18 1024.6 1024.6 0.0
22/02:00pm 25.8 20.9 4.3 25 10.8 W 19 30 10 16 1025.2 1025.2 0.0
22/01:30pm 24.8 19.8 3.5 25 10.5 W 19 28 10 15 1025.6 1025.6 0.0
22/01:00pm 25.3 21.3 5.0 27 10.2 WSW 15 26 8 14 1026.1 1026.1 0.0
22/12:30pm 24.1 18.3 4.5 28 9.8 W 24 33 13 18 1026.8 1026.8 0.0
22/12:00pm 23.3 18.8 4.3 29 9.3 WSW 17 26 9 14 1027.4 1027.4 0.0
22/11:30am 23.5 18.7 4.5 29 9.4 WSW 19 30 10 16 1027.9 1027.9 0.0
22/11:00am 22.7 18.3 4.7 31 8.9 WNW 17 26 9 14 1028.1 1028.1 0.0
22/10:30am 21.8 17.7 4.4 32 8.5 NW 15 20 8 11 1028.2 1028.2 0.0
22/10:00am 21.3 17.6 4.4 33 8.2 N 13 19 7 10 1028.4 1028.4 0.0
22/09:30am 19.4 16.0 4.0 36 7.4 NNE 11 19 6 10 1028.6 1028.6 0.0
22/09:00am 18.2 14.5 4.4 40 6.5 N 13 17 7 9 1028.5 1028.5 0.0
22/08:30am 15.8 11.6 3.9 45 5.5 NNE 15 20 8 11 1028.5 1028.5 0.0
22/08:00am 14.6 10.8 4.0 49 4.8 NNE 13 15 7 8 1028.3 1028.3 0.0
22/07:30am 13.2 10.3 4.4 55 4.0 NNE 9 11 5 6 1028.2 1028.2 0.0
22/07:27am 13.0 10.4 4.4 56 3.9 NNE 7 11 4 6 1028.2 1028.2 0.0
22/07:00am 8.0 5.1 1.6 64 2.6 NNW 6 7 3 4 1027.9 1027.9 0.0
22/06:30am 7.8 4.8 1.9 66 2.4 NNW 7 7 4 4 1027.5 1027.5 0.0
22/06:00am 8.5 5.7 2.9 68 2.4 NNW 7 15 4 8 1027.3 1027.3 0.0
22/05:30am 8.2 6.5 1.6 63 2.7 CALM 0 0 0 0 1026.9 1026.9 0.0
22/05:00am 8.2 5.0 0.9 60 2.9 NE 7 7 4 4 1026.7 1026.7 0.0
22/04:30am 7.4 4.3 -0.1 59 2.9 ENE 6 7 3 4 1026.5 1026.5 0.0
22/04:00am 7.5 4.3 -0.5 57 3.1 ENE 6 7 3 4 1026.4 1026.4 0.0
22/03:30am 7.7 5.7 0.0 58 3.0 CALM 0 0 0 0 1026.4 1026.4 0.0
22/03:00am 7.4 5.2 -1.3 54 3.3 CALM 0 0 0 0 1026.7 1026.7 0.0
22/02:30am 7.4 5.2 -1.3 54 3.3 CALM 0 0 0 0 1026.7 1026.7 0.0
22/02:00am 7.8 5.9 0.5 60 2.9 CALM 0 0 0 0 1027.0 1027.0 0.0
22/01:30am 8.1 5.0 0.3 58 3.1 WNW 6 7 3 4 1027.2 1027.2 0.0
22/01:00am 7.9 4.7 -0.6 55 3.3 NNW 6 7 3 4 1027.3 1027.3 0.0
22/12:30am 8.5 6.1 0.0 55 3.4 N 2 6 1 3 1027.3 1027.3 0.0
22/12:00am 9.1 7.2 0.3 54 3.5 CALM 0 0 0 0 1027.3 1027.3 0.0
 
Date/Time
EST
Temp
°C
App
Temp
°C
Dew
Point
°C
Rel
Hum
%
Delta-T
°C
Wind Press
QNH
hPa
Press
MSL
hPa
Rain since
9am
mm
Dir  Spd
km/h
Gust
km/h
Spd
kts
Gust
kts
21/11:30pm 9.5 7.6 0.4 53 3.7 CALM 0 0 0 0 1027.1 1027.1 0.0
21/11:00pm 10.7 8.9 1.3 52 3.9 CALM 0 0 0 0 1027.3 1027.3 0.0
21/10:30pm 10.8 9.0 1.4 52 4.0 CALM 0 0 0 0 1027.3 1027.3 0.0
21/10:00pm 11.5 8.3 0.9 48 4.4 SSW 7 7 4 4 1027.2 1027.2 0.0
21/09:30pm 11.9 8.4 1.5 49 4.4 SW 9 11 5 6 1027.3 1027.3 0.0
21/09:00pm 11.5 8.4 0.0 45 4.7 WSW 6 7 3 4 1027.3 1027.3 0.0
21/08:30pm 13.2 10.2 1.8 46 4.9 SSW 7 7 4 4 1027.1 1027.1 0.0
21/08:00pm 14.7 11.0 2.3 43 5.5 SW 11 13 6 7 1026.9 1026.9 0.0
21/07:30pm 15.2 11.8 2.1 41 5.8 SW 9 11 5 6 1026.7 1026.7 0.0
21/07:00pm 16.4 12.7 2.1 38 6.4 WSW 11 13 6 7 1026.4 1026.4 0.0
21/06:30pm 18.1 14.5 2.8 36 7.1 SW 11 13 6 7 1026.1 1026.1 0.0
21/06:00pm 20.3 16.0 3.1 32 8.1 SW 15 20 8 11 1025.9 1025.9 0.0
21/05:30pm 21.3 16.7 3.5 31 8.5 WSW 17 20 9 11 1025.7 1025.7 0.0
21/05:00pm 21.6 16.6 3.8 31 8.6 SW 19 24 10 13 1025.4 1025.4 0.0
21/04:30pm 21.8 17.2 3.9 31 8.7 W 17 26 9 14 1025.3 1025.3 0.0
21/04:00pm 22.3 17.5 4.4 31 8.8 WSW 19 28 10 15 1025.4 1025.4 0.0
21/03:30pm 22.4 17.3 4.0 30 9.0 W 20 30 11 16 1025.5 1025.5 0.0
21/03:00pm 21.8 16.8 4.4 32 8.5 W 20 28 11 15 1025.6 1025.6 0.0
21/02:30pm 21.9 17.5 4.5 32 8.6 WSW 17 24 9 13 1025.8 1025.8 0.0
21/02:00pm 21.6 17.2 4.7 33 8.3 W 17 33 9 18 1026.1 1026.1 0.0
21/01:30pm 21.6 17.6 4.7 33 8.3 WNW 15 28 8 15 1026.5 1026.5 0.0
21/01:00pm 21.4 16.5 4.9 34 8.1 WNW 20 28 11 15 1026.8 1026.8 0.0
21/12:30pm 21.0 16.1 5.0 35 7.9 WSW 20 32 11 17 1027.2 1027.2 0.0
21/12:00pm 20.8 16.5 5.2 36 7.7 W 17 30 9 16 1027.5 1027.5 0.0
21/11:30am 19.9 16.0 5.2 38 7.2 WNW 15 26 8 14 1027.9 1027.9 0.0
21/11:00am 19.3 14.9 5.0 39 6.9 W 17 28 9 15 1028.2 1028.2 0.0
21/10:30am 18.0 14.0 4.9 42 6.3 W 15 20 8 11 1028.5 1028.5 0.0
21/10:00am 17.6 14.8 5.2 44 6.0 W 9 20 5 11 1028.6 1028.6 0.0
21/09:30am 15.9 13.5 5.2 49 5.1 WSW 7 13 4 7 1028.6 1028.6 0.0
21/09:00am 14.8 12.4 5.3 53 4.5 SW 7 11 4 6 1028.6 1028.6 0.0
21/08:30am 12.7 9.8 4.7 58 3.7 SW 9 11 5 6 1028.3 1028.3 0.0
21/08:00am 11.8 8.8 4.3 60 3.4 SW 9 13 5 7 1028.0 1028.0 0.0
21/07:30am 9.2 6.3 2.5 63 2.8 WSW 7 9 4 5 1027.5 1027.5 0.0
21/07:00am 6.9 3.7 1.0 66 2.3 WSW 7 9 4 5 1027.2 1027.2 0.0
21/06:30am 5.0 1.8 -0.2 69 2.0 W 6 7 3 4 1026.8 1026.8 0.0
21/06:00am 4.5 1.1 -0.9 68 2.0 W 7 7 4 4 1026.5 1026.5 0.0
21/05:30am 4.5 1.2 -1.3 66 2.1 WNW 6 7 3 4 1026.3 1026.3 0.0
21/05:00am 4.9 1.5 -0.7 67 2.1 NW 7 9 4 5 1026.1 1026.1 0.0
21/04:30am 3.9 0.5 -2.1 65 2.1 NW 6 9 3 5 1026.0 1026.0 0.0
21/04:00am 3.7 1.3 -3.3 60 2.4 CALM 0 0 0 0 1025.6 1025.6 0.0
21/03:30am 3.9 1.6 -2.5 63 2.3 CALM 0 0 0 0 1025.5 1025.5 0.0
21/03:00am 4.2 1.9 -2.0 64 2.2 CALM 0 0 0 0 1025.5 1025.5 0.0
21/02:30am 4.3 0.5 -3.4 57 2.7 NE 7 7 4 4 1025.3 1025.3 0.0
21/02:00am 5.4 1.9 -2.9 55 2.9 N 6 7 3 4 1025.6 1025.6 0.0
21/01:30am 6.0 2.6 -0.9 61 2.6 NNW 7 7 4 4 1025.8 1025.8 0.0
21/01:00am 5.5 1.9 -2.3 57 2.8 N 7 9 4 5 1025.8 1025.8 0.0
21/12:30am 6.1 2.5 -2.2 55 3.0 NNW 7 7 4 4 1025.7 1025.7 0.0
21/12:00am 6.5 3.4 -2.4 53 3.2 N 4 6 2 3 1025.7 1025.7 0.0
 
Date/Time
EST
Temp
°C
App
Temp
°C
Dew
Point
°C
Rel
Hum
%
Delta-T
°C
Wind Press
QNH
hPa
Press
MSL
hPa
Rain since
9am
mm
Dir  Spd
km/h
Gust
km/h
Spd
kts
Gust
kts
20/11:30pm 6.6 2.9 -4.2 46 3.8 NNW 6 6 3 3 1025.8 1025.8 0.0
20/11:00pm 8.1 4.6 -3.1 45 4.1 NW 6 6 3 3 1025.9 1025.9 0.0
20/10:30pm 8.1 4.4 -2.5 47 3.9 NW 7 9 4 5 1025.8 1025.8 0.0
20/10:00pm 9.1 5.7 -2.2 45 4.3 NW 6 7 3 4 1025.7 1025.7 0.0
20/09:30pm 9.4 7.0 -2.8 42 4.6 CALM 0 0 0 0 1025.5 1025.5 0.0
20/09:00pm 9.9 7.2 -2.4 42 4.7 WNW 2 6 1 3 1025.2 1025.2 0.0
20/08:30pm 10.4 7.3 -2.9 39 5.0 W 4 7 2 4 1024.8 1024.8 0.0
20/08:00pm 10.3 6.6 -4.5 35 5.4 WSW 6 9 3 5 1024.5 1024.5 0.0
20/07:30pm 12.3 8.5 -3.5 33 6.0 SW 7 9 4 5 1024.0 1023.9 0.0
20/07:00pm 13.3 9.6 -3.0 32 6.3 SW 7 11 4 6 1023.5 1023.4 0.0
20/06:30pm 14.9 10.0 -3.0 29 7.1 SW 13 15 7 8 1023.0 1022.9 0.0
20/06:00pm 17.0 12.3 -2.1 27 7.9 SW 13 26 7 14 1022.7 1022.6 0.0
20/05:30pm 17.8 12.7 -1.9 26 8.2 SSW 15 22 8 12 1022.4 1022.4 0.0
20/05:00pm 18.7 12.9 -1.7 25 8.6 SW 19 24 10 13 1022.2 1022.2 0.0
20/04:30pm 19.0 13.1 -2.0 24 8.9 SW 19 30 10 16 1021.9 1021.9 0.0
20/04:00pm 18.7 12.3 -1.7 25 8.6 SW 22 37 12 20 1021.7 1021.7 0.0
20/03:30pm 18.5 13.1 -1.3 26 8.4 SW 17 33 9 18 1021.6 1021.6 0.0
20/03:00pm 18.8 12.0 -1.6 25 8.6 SW 24 37 13 20 1021.8 1021.8 0.0
20/02:30pm 18.9 12.1 -1.5 25 8.7 SW 24 35 13 19 1021.9 1021.9 0.0
20/02:00pm 18.2 10.7 -1.6 26 8.3 SW 28 35 15 19 1022.2 1022.2 0.0
20/01:30pm 18.3 11.2 -1.0 27 8.3 WSW 26 39 14 21 1022.3 1022.3 0.0
20/01:00pm 17.6 11.4 -0.6 29 7.8 SW 22 33 12 18 1022.3 1022.3 0.0
20/12:30pm 17.7 11.0 -1.0 28 8.0 WSW 24 32 13 17 1022.4 1022.4 0.0
20/12:00pm 17.4 12.2 0.1 31 7.5 WSW 17 30 9 16 1022.7 1022.6 0.0
20/11:30am 15.9 10.6 -0.3 33 6.9 SW 17 26 9 14 1022.6 1022.5 0.0
20/11:00am 16.4 11.6 0.1 33 7.0 SW 15 24 8 13 1022.8 1022.7 0.0
20/10:30am 15.2 9.6 0.2 36 6.4 SW 19 26 10 14 1022.9 1022.8 0.0
20/10:00am 14.5 9.2 1.8 42 5.5 SW 19 24 10 13 1022.9 1022.8 0.0
20/09:30am 13.6 8.5 2.8 48 4.8 WSW 19 28 10 15 1022.9 1022.8 0.0
20/09:00am 12.6 7.9 3.3 53 4.1 WSW 17 20 9 11 1022.7 1022.6 0.0
20/08:30am 10.8 6.1 3.1 59 3.4 SW 17 22 9 12 1022.4 1022.4 0.0
20/08:00am 9.5 4.9 3.5 66 2.6 SW 17 20 9 11 1021.9 1021.9 0.0
20/07:30am 7.6 2.9 3.1 73 1.9 WSW 17 20 9 11 1021.6 1021.6 0.0
20/07:00am 6.0 1.5 2.3 77 1.5 WSW 15 19 8 10 1021.1 1021.1 0.0
20/06:30am 4.8 1.0 1.8 81 1.2 W 11 15 6 8 1020.6 1020.6 0.0
20/06:00am 4.9 1.1 1.6 79 1.3 W 11 15 6 8 1020.2 1020.2 0.0
20/05:30am 5.2 0.9 1.3 76 1.5 W 13 15 7 8 1019.9 1019.9 0.0
20/05:00am 5.6 2.1 1.0 72 1.8 W 9 13 5 7 1019.4 1019.4 0.0
20/04:30am 6.5 2.2 1.2 69 2.1 WSW 13 15 7 8 1019.3 1019.3 0.0
20/04:00am 7.2 2.6 1.3 66 2.4 WSW 15 17 8 9 1019.1 1019.1 0.0
20/03:30am 8.5 3.6 1.9 63 2.7 WSW 17 20 9 11 1019.0 1019.0 0.0
20/03:00am 9.8 4.9 2.2 59 3.2 WSW 17 20 9 11 1018.8 1018.8 0.0
20/02:30am 10.3 5.5 2.4 58 3.4 WSW 17 20 9 11 1018.9 1018.9 0.0
20/02:00am 9.7 5.2 2.3 60 3.1 WSW 15 20 8 11 1018.8 1018.8 0.0
20/01:30am 9.4 5.2 1.6 58 3.2 WSW 13 17 7 9 1018.9 1018.9 0.0
20/01:00am 10.4 5.8 1.8 55 3.6 WSW 15 19 8 10 1018.9 1018.9 0.0
20/12:30am 10.9 6.0 1.7 53 3.9 WSW 17 20 9 11 1018.8 1018.8 0.0
20/12:00am 12.0 6.1 1.9 50 4.3 WSW 22 28 12 15 1019.0 1019.0 0.0
 
Date/Time
EST
Temp
°C
App
Temp
°C
Dew
Point
°C
Rel
Hum
%
Delta-T
°C
Wind Press
QNH
hPa
Press
MSL
hPa
Rain since
9am
mm
Dir  Spd
km/h
Gust
km/h
Spd
kts
Gust
kts
19/11:30pm 12.7 7.2 1.7 47 4.7 WSW 20 26 11 14 1018.7 1018.7 0.0
19/11:00pm 13.4 7.3 0.1 40 5.6 SW 22 30 12 16 1018.6 1018.6 0.0
19/10:30pm 13.3 7.0 -1.1 37 5.9 WSW 22 28 12 15 1018.5 1018.5 0.0
19/10:00pm 13.2 7.2 -1.5 36 5.9 WNW 20 28 11 15 1018.2 1018.2 0.0
19/09:30pm 11.2 7.1 -3.3 36 5.5 W 9 11 5 6 1017.9 1017.9 0.0
19/09:00pm 11.2 7.0 -3.7 35 5.6 WSW 9 11 5 6 1017.9 1017.9 0.0
19/08:30pm 12.1 8.0 -3.3 34 5.9 W 9 11 5 6 1017.7 1017.7 0.0
19/08:00pm 12.9 8.8 -3.0 33 6.2 WSW 9 11 5 6 1017.4 1017.4 0.0
19/07:30pm 12.9 8.8 -3.4 32 6.3 WSW 9 11 5 6 1017.1 1017.1 0.0
19/07:00pm 13.2 8.3 -3.1 32 6.3 WSW 13 17 7 9 1016.8 1016.8 0.0
19/06:30pm 14.2 8.6 -3.1 30 6.8 WSW 17 19 9 10 1016.4 1016.4 0.0
19/06:00pm 15.2 9.2 -3.2 28 7.3 WSW 19 28 10 15 1016.2 1016.2 0.0
19/05:30pm 16.2 9.6 -3.3 26 7.8 WSW 22 32 12 17 1015.8 1015.8 0.0

Other Formats:

Comma delimited format used in spreadsheet applications
http://www.bom.gov.au/fwo/IDN60801/IDN60801.94702.axf

JavaScript Object Notation format (JSON) in row-major order
http://www.bom.gov.au/fwo/IDN60801/IDN60801.94702.json